Time;durP1;ratioP1;P1;durP2;ratioP2;P2;SDS_P1;SDS_P2;PMS_P1;PMS_P2;Temp;Humidity;BMP_temperature;BMP_pressure;BME280_temperature;BME280_humidity;BME280_pressure;Samples;Min_cycle;Max_cycle;Signal;HPM_P1;HPM_P2
2022/07/23 00:01:12;;;;;;;4.03;1.20;;;13.10;58.80;;;;;;5030117;28;20684;-47
2022/07/23 00:03:43;;;;;;;2.88;1.38;;;13.20;59.20;;;;;;5030861;28;20200;-47
2022/07/23 00:06:15;;;;;;;6.28;1.05;;;13.30;59.50;;;;;;5030923;28;20692;-45
2022/07/23 00:08:46;;;;;;;3.45;1.42;;;13.30;59.40;;;;;;5030872;28;20196;-44
2022/07/23 00:11:17;;;;;;;4.25;1.23;;;13.40;59.30;;;;;;5030621;28;20700;-46
2022/07/23 00:13:48;;;;;;;3.65;1.42;;;13.40;59.30;;;;;;5029927;28;20200;-43
2022/07/23 00:16:19;;;;;;;2.97;1.25;;;13.50;59.20;;;;;;5030175;28;20206;-44
2022/07/23 00:18:49;;;;;;;4.78;1.27;;;13.50;59.20;;;;;;5030436;28;20223;-45
2022/07/23 00:21:22;;;;;;;3.17;1.15;;;13.50;59.20;;;;;;5026769;28;20216;-45
2022/07/23 00:23:53;;;;;;;3.80;1.10;;;13.50;59.10;;;;;;5030302;28;20700;-47
2022/07/23 00:26:23;;;;;;;5.32;1.20;;;13.50;59.00;;;;;;5030654;28;20200;-44
2022/07/23 00:28:54;;;;;;;3.97;1.13;;;13.50;59.00;;;;;;5030623;28;20553;-44
2022/07/23 00:31:25;;;;;;;2.60;1.17;;;13.60;59.00;;;;;;5030482;28;20569;-44
2022/07/23 00:33:56;;;;;;;2.70;1.10;;;13.60;58.90;;;;;;5030347;28;20200;-44
2022/07/23 00:36:31;;;;;;;2.90;0.95;;;13.60;58.90;;;;;;5030010;28;20257;-44
2022/07/23 00:39:01;;;;;;;3.25;1.35;;;13.60;58.90;;;;;;5030118;28;20227;-44
2022/07/23 00:41:32;;;;;;;5.90;1.42;;;13.60;58.90;;;;;;5026979;28;20766;-49
2022/07/23 00:44:17;;;;;;;3.60;1.17;;;13.60;58.90;;;;;;5030161;28;20227;-51
2022/07/23 00:46:53;;;;;;;5.13;1.30;;;13.60;58.90;;;;;;5029785;28;20204;-46
2022/07/23 00:49:24;;;;;;;1.95;1.20;;;13.60;58.90;;;;;;5029858;28;20199;-45
2022/07/23 00:51:57;;;;;;;3.17;1.55;;;13.60;58.90;;;;;;5029867;28;20230;-54
2022/07/23 00:54:29;;;;;;;3.10;1.10;;;13.60;59.00;;;;;;5030284;28;20196;-45
2022/07/23 00:57:00;;;;;;;2.17;0.90;;;13.60;58.90;;;;;;5029940;28;20200;-44
2022/07/23 00:59:30;;;;;;;2.08;0.85;;;13.70;58.90;;;;;;5029597;28;20203;-43
2022/07/23 01:02:01;;;;;;;3.38;1.25;;;13.70;58.90;;;;;;5029153;28;20215;-52
2022/07/23 01:04:32;;;;;;;3.10;1.17;;;13.70;58.90;;;;;;5030191;28;20227;-43
2022/07/23 01:07:05;;;;;;;2.67;1.30;;;13.70;58.80;;;;;;5030040;28;20200;-48
2022/07/23 01:09:36;;;;;;;1.45;0.90;;;13.70;58.80;;;;;;5029773;28;20204;-44
2022/07/23 01:12:07;;;;;;;2.13;1.20;;;13.70;58.80;;;;;;5030043;28;20303;-44
2022/07/23 01:14:38;;;;;;;2.50;1.17;;;13.80;58.70;;;;;;5030131;28;20199;-44
2022/07/23 01:17:09;;;;;;;3.58;1.30;;;13.70;58.70;;;;;;5029301;28;20242;-49
2022/07/23 01:19:39;;;;;;;4.47;1.55;;;13.70;58.70;;;;;;5029817;28;20687;-51
2022/07/23 01:22:13;;;;;;;3.45;1.40;;;13.80;58.70;;;;;;5029450;28;20220;-44
2022/07/23 01:24:45;;;;;;;4.20;1.38;;;13.70;58.70;;;;;;5029768;28;20200;-47
2022/07/23 01:27:17;;;;;;;2.38;1.27;;;13.70;58.70;;;;;;5033669;28;20203;-47
2022/07/23 01:29:48;;;;;;;2.25;1.20;;;13.70;58.70;;;;;;5033642;28;20200;-44
2022/07/23 01:32:18;;;;;;;2.33;1.10;;;13.80;58.70;;;;;;5033762;28;20219;-44
2022/07/23 01:34:49;;;;;;;3.30;1.45;;;13.80;58.70;;;;;;5033372;28;20203;-43
2022/07/23 01:37:20;;;;;;;2.95;1.45;;;13.80;58.70;;;;;;5033013;28;20204;-43
2022/07/23 01:39:52;;;;;;;2.28;1.55;;;13.80;58.70;;;;;;5033323;28;20202;-46
2022/07/23 01:42:23;;;;;;;2.22;1.20;;;13.80;58.60;;;;;;5032867;28;20257;-44
2022/07/23 01:44:54;;;;;;;1.98;1.50;;;13.80;58.60;;;;;;5033395;28;20219;-43
2022/07/23 01:47:25;;;;;;;3.65;1.52;;;13.80;58.60;;;;;;5033302;28;20203;-44
2022/07/23 01:49:55;;;;;;;2.80;2.03;;;13.80;58.60;;;;;;5033593;28;20679;-44
2022/07/23 01:52:26;;;;;;;3.45;1.70;;;13.80;58.60;;;;;;5032827;28;20236;-46
2022/07/23 01:54:59;;;;;;;4.18;1.83;;;13.80;58.40;;;;;;5032852;28;20196;-46
2022/07/23 01:57:29;;;;;;;3.35;1.75;;;13.80;58.30;;;;;;5032995;28;20211;-47
2022/07/23 02:00:00;;;;;;;3.60;1.63;;;13.90;58.30;;;;;;5032756;28;20200;-44
2022/07/23 02:02:31;;;;;;;3.28;1.80;;;13.90;58.30;;;;;;5032343;28;20224;-45
2022/07/23 02:05:01;;;;;;;5.28;2.17;;;13.90;58.30;;;;;;5033216;28;20207;-44
2022/07/23 02:07:32;;;;;;;3.60;2.05;;;13.90;58.30;;;;;;5033160;28;20258;-45
2022/07/23 02:10:05;;;;;;;5.40;2.33;;;13.90;58.40;;;;;;5032701;28;20207;-44
2022/07/23 02:12:35;;;;;;;3.50;2.05;;;13.90;58.40;;;;;;5032318;28;20216;-44
2022/07/23 02:15:06;;;;;;;4.97;2.70;;;13.90;58.40;;;;;;5032456;28;20210;-44
2022/07/23 02:17:37;;;;;;;5.55;2.83;;;13.90;58.40;;;;;;5032154;28;20203;-46
2022/07/23 02:20:09;;;;;;;4.28;2.60;;;13.90;58.30;;;;;;5029326;28;20184;-44
2022/07/23 02:22:40;;;;;;;5.00;3.05;;;14.00;58.40;;;;;;5032581;28;20713;-49
2022/07/23 02:25:13;;;;;;;6.57;3.03;;;14.00;58.40;;;;;;5033233;28;20200;-45
2022/07/23 02:27:44;;;;;;;6.28;3.17;;;14.00;58.40;;;;;;5032950;28;20203;-45
2022/07/23 02:30:15;;;;;;;5.55;3.13;;;14.00;58.40;;;;;;5032563;28;20192;-44
2022/07/23 02:32:46;;;;;;;6.38;3.00;;;14.00;58.30;;;;;;5032665;28;20223;-44
2022/07/23 02:35:16;;;;;;;4.38;2.83;;;14.00;58.30;;;;;;5032556;28;20738;-45
2022/07/23 02:37:47;;;;;;;5.78;2.92;;;14.00;58.30;;;;;;5031884;28;20256;-44
2022/07/23 02:40:20;;;;;;;5.10;2.83;;;14.00;58.30;;;;;;5031562;28;20192;-44
2022/07/23 02:42:50;;;;;;;6.88;3.13;;;14.00;58.40;;;;;;5031634;28;20216;-45
2022/07/23 02:45:21;;;;;;;6.18;3.13;;;14.00;58.30;;;;;;5021742;28;20201;-47
2022/07/23 02:47:52;;;;;;;4.57;2.72;;;14.00;58.40;;;;;;5030840;28;20204;-45
2022/07/23 02:50:22;;;;;;;6.00;3.13;;;14.00;58.40;;;;;;5031308;28;20215;-45
2022/07/23 02:52:53;;;;;;;4.28;2.60;;;14.00;58.40;;;;;;5031027;28;20227;-45
2022/07/23 02:55:26;;;;;;;4.95;2.55;;;14.00;58.40;;;;;;5032111;28;20223;-44
2022/07/23 02:57:56;;;;;;;6.47;2.58;;;14.00;58.40;;;;;;5031887;28;20231;-46
2022/07/23 03:00:27;;;;;;;3.97;2.55;;;14.00;58.40;;;;;;5031847;28;20197;-45
2022/07/23 03:02:58;;;;;;;5.07;2.88;;;14.00;58.30;;;;;;5031522;28;20200;-45
2022/07/23 03:05:29;;;;;;;4.53;2.80;;;14.00;58.30;;;;;;5031932;28;20191;-44
2022/07/23 03:07:59;;;;;;;4.78;2.90;;;14.00;58.30;;;;;;5031888;28;20200;-48
2022/07/23 03:10:32;;;;;;;4.70;2.35;;;14.00;58.30;;;;;;5031930;28;20200;-46
2022/07/23 03:13:03;;;;;;;6.70;3.03;;;14.00;58.30;;;;;;5031157;28;20207;-49
2022/07/23 03:15:33;;;;;;;6.30;3.13;;;14.00;58.30;;;;;;5031498;28;20196;-45
2022/07/23 03:18:04;;;;;;;4.10;2.75;;;14.00;58.50;;;;;;5031239;28;20224;-48
2022/07/23 03:20:35;;;;;;;7.32;3.03;;;14.00;58.30;;;;;;5031443;28;20203;-48
2022/07/23 03:23:05;;;;;;;4.38;2.45;;;14.00;58.40;;;;;;5031579;28;20682;-44
2022/07/23 03:25:38;;;;;;;5.85;2.55;;;14.00;58.30;;;;;;5031352;28;20196;-47
2022/07/23 03:28:09;;;;;;;4.40;2.35;;;14.00;58.40;;;;;;5031289;28;20200;-44
2022/07/23 03:30:39;;;;;;;3.78;2.42;;;14.00;58.40;;;;;;5031836;28;20203;-45
2022/07/23 03:33:10;;;;;;;3.85;2.35;;;14.00;58.40;;;;;;5030774;28;20204;-47
2022/07/23 03:35:41;;;;;;;5.47;2.88;;;14.00;58.30;;;;;;5031260;28;20704;-45
2022/07/23 03:38:12;;;;;;;4.38;2.47;;;14.10;58.40;;;;;;5031585;28;20239;-48
2022/07/23 03:40:44;;;;;;;4.32;2.75;;;14.00;58.30;;;;;;5031249;28;20652;-48
2022/07/23 03:43:15;;;;;;;4.65;2.60;;;14.00;58.30;;;;;;5031368;28;20660;-44
2022/07/23 03:45:46;;;;;;;5.38;2.90;;;14.00;58.30;;;;;;5025018;28;20200;-49
2022/07/23 03:48:16;;;;;;;6.38;3.25;;;14.00;58.30;;;;;;5026350;28;20196;-51
2022/07/23 03:50:47;;;;;;;4.63;2.45;;;14.00;58.30;;;;;;5031210;28;20573;-47
2022/07/23 03:53:18;;;;;;;3.83;2.33;;;14.10;58.40;;;;;;5030800;28;20199;-52
2022/07/23 03:55:52;;;;;;;3.53;2.42;;;14.00;58.30;;;;;;5030908;28;20202;-52
2022/07/23 03:58:23;;;;;;;4.65;2.55;;;14.00;58.40;;;;;;5031267;28;20694;-44
2022/07/23 04:00:53;;;;;;;5.55;2.83;;;14.00;58.40;;;;;;5031804;28;20200;-54
2022/07/23 04:03:24;;;;;;;3.22;2.60;;;14.00;58.40;;;;;;5030460;28;20200;-51
2022/07/23 04:05:55;;;;;;;4.40;2.50;;;14.10;58.40;;;;;;5031115;28;20203;-56
2022/07/23 04:08:25;;;;;;;4.50;2.78;;;14.10;58.40;;;;;;5030960;28;20192;-46
2022/07/23 04:10:58;;;;;;;4.18;2.50;;;14.10;58.40;;;;;;5031555;28;20227;-53
2022/07/23 04:13:29;;;;;;;4.35;2.50;;;14.10;58.40;;;;;;5031465;28;20196;-47
2022/07/23 04:15:59;;;;;;;5.70;2.67;;;14.10;58.40;;;;;;5028798;28;20204;-53
2022/07/23 04:18:30;;;;;;;4.45;2.83;;;14.10;58.40;;;;;;5023903;28;20231;-58
2022/07/23 04:21:01;;;;;;;3.83;2.30;;;14.10;58.40;;;;;;5030754;28;20223;-48
2022/07/23 04:23:31;;;;;;;4.05;2.53;;;14.10;58.40;;;;;;5031117;28;20199;-61
2022/07/23 04:26:04;;;;;;;5.15;2.45;;;14.10;58.40;;;;;;5031219;28;20203;-53
2022/07/23 04:28:35;;;;;;;3.97;2.55;;;14.10;58.40;;;;;;5030592;28;20211;-48
2022/07/23 04:31:05;;;;;;;3.75;2.60;;;14.10;58.40;;;;;;5030976;28;20216;-55
2022/07/23 04:33:36;;;;;;;3.95;2.60;;;14.10;58.40;;;;;;5031606;28;20192;-47
2022/07/23 04:36:07;;;;;;;4.20;2.70;;;14.10;58.50;;;;;;5030134;28;20704;-51
2022/07/23 04:38:38;;;;;;;4.90;2.97;;;14.10;58.50;;;;;;5027965;28;20222;-62
2022/07/23 04:41:10;;;;;;;4.47;2.53;;;14.10;58.50;;;;;;5023219;28;20215;-51
2022/07/23 04:43:41;;;;;;;3.85;2.40;;;14.10;58.50;;;;;;5031180;28;20192;-45
2022/07/23 04:46:12;;;;;;;4.20;2.15;;;14.10;58.50;;;;;;5031483;28;20214;-49
2022/07/23 04:48:43;;;;;;;4.35;2.67;;;14.10;58.50;;;;;;5030087;28;20192;-50
2022/07/23 04:51:14;;;;;;;4.65;2.78;;;14.10;58.50;;;;;;5031374;28;20282;-53
2022/07/23 04:53:45;;;;;;;4.35;2.47;;;14.10;58.50;;;;;;5030395;28;20195;-49
2022/07/23 04:56:17;;;;;;;3.60;2.47;;;14.10;58.50;;;;;;5031500;28;20200;-46
2022/07/23 04:58:48;;;;;;;4.72;2.42;;;14.10;58.50;;;;;;5030722;28;20231;-48
2022/07/23 05:01:19;;;;;;;4.68;2.85;;;14.10;58.50;;;;;;5029793;28;20220;-47
2022/07/23 05:03:49;;;;;;;5.50;2.63;;;14.10;58.50;;;;;;5030656;28;20196;-47
2022/07/23 05:06:20;;;;;;;3.95;2.35;;;14.10;58.60;;;;;;5030011;28;20289;-48
2022/07/23 05:08:51;;;;;;;3.53;2.08;;;14.10;58.70;;;;;;5030366;28;20200;-47
2022/07/23 05:11:23;;;;;;;4.53;2.60;;;14.20;58.70;;;;;;5030975;28;20741;-50
2022/07/23 05:13:54;;;;;;;4.18;2.60;;;14.10;58.70;;;;;;5030607;28;20211;-48
2022/07/23 05:16:25;;;;;;;3.90;2.20;;;14.10;58.70;;;;;;5030133;28;20192;-49
2022/07/23 05:18:55;;;;;;;3.03;2.20;;;14.20;58.70;;;;;;5030516;28;20220;-48
2022/07/23 05:21:26;;;;;;;3.38;2.25;;;14.20;58.70;;;;;;5030370;28;20224;-47
2022/07/23 05:23:57;;;;;;;4.20;2.50;;;14.10;58.70;;;;;;5030567;28;20275;-45
2022/07/23 05:26:29;;;;;;;4.32;2.40;;;14.10;58.70;;;;;;5030144;28;20569;-54
2022/07/23 05:29:00;;;;;;;5.15;2.42;;;14.10;58.60;;;;;;5030416;28;20702;-47
2022/07/23 05:31:31;;;;;;;3.53;2.40;;;14.10;58.60;;;;;;5030526;28;20228;-51
2022/07/23 05:34:02;;;;;;;4.40;2.50;;;14.10;58.60;;;;;;5030254;28;20188;-50
2022/07/23 05:36:33;;;;;;;4.97;2.58;;;14.10;58.60;;;;;;5030145;28;20196;-49
2022/07/23 05:39:04;;;;;;;4.57;2.60;;;14.10;58.70;;;;;;5030087;28;20224;-46
2022/07/23 05:41:37;;;;;;;4.50;2.28;;;14.10;59.20;;;;;;5030333;28;20208;-56
2022/07/23 05:44:08;;;;;;;3.90;2.33;;;14.10;58.70;;;;;;5030250;28;20189;-54
2022/07/23 05:46:38;;;;;;;3.70;2.30;;;14.10;58.70;;;;;;5030174;28;20706;-46
2022/07/23 05:49:09;;;;;;;3.83;2.47;;;14.10;58.70;;;;;;5029594;28;20188;-54
2022/07/23 05:51:40;;;;;;;3.70;2.38;;;14.10;58.70;;;;;;5030275;28;20224;-48
2022/07/23 05:54:10;;;;;;;3.97;2.58;;;14.10;58.70;;;;;;5029776;28;20188;-56
2022/07/23 05:56:43;;;;;;;2.88;2.15;;;14.10;58.70;;;;;;5029871;28;20207;-53
2022/07/23 05:59:14;;;;;;;3.90;2.47;;;14.10;58.70;;;;;;5029899;28;20224;-49
2022/07/23 06:01:45;;;;;;;4.30;2.33;;;14.10;58.70;;;;;;5029901;28;20223;-49
2022/07/23 06:04:16;;;;;;;2.97;2.10;;;14.10;58.70;;;;;;5030165;28;20199;-51
2022/07/23 06:06:46;;;;;;;4.05;2.30;;;14.10;58.70;;;;;;5029810;28;20204;-47
2022/07/23 06:09:17;;;;;;;4.82;2.50;;;14.10;58.70;;;;;;5030571;28;20199;-53
2022/07/23 06:11:50;;;;;;;3.03;2.25;;;14.10;58.80;;;;;;5030547;28;20593;-46
2022/07/23 06:14:20;;;;;;;4.10;2.38;;;14.10;58.90;;;;;;5033997;28;20189;-51
2022/07/23 06:16:51;;;;;;;4.28;2.60;;;14.10;58.90;;;;;;5033609;28;20192;-45
2022/07/23 06:19:22;;;;;;;4.47;2.25;;;14.10;58.90;;;;;;5033873;28;20220;-45
2022/07/23 06:21:52;;;;;;;3.85;2.70;;;14.00;58.80;;;;;;5033828;28;20216;-46
2022/07/23 06:24:23;;;;;;;3.80;2.25;;;14.10;58.80;;;;;;5033247;28;20184;-52
2022/07/23 06:26:55;;;;;;;4.28;2.40;;;14.10;58.80;;;;;;5023478;28;20205;-45
2022/07/23 06:29:26;;;;;;;2.90;1.98;;;14.10;58.80;;;;;;5021335;28;20196;-46
2022/07/23 06:31:57;;;;;;;4.72;2.60;;;14.10;58.80;;;;;;5034133;28;20220;-44
2022/07/23 06:34:27;;;;;;;3.75;2.38;;;14.00;58.80;;;;;;5033530;28;20192;-44
2022/07/23 06:36:58;;;;;;;3.70;2.60;;;14.00;58.80;;;;;;5033532;28;20203;-43
2022/07/23 06:39:29;;;;;;;3.17;2.42;;;14.00;58.80;;;;;;5031059;28;20219;-44
2022/07/23 06:42:02;;;;;;;3.22;2.42;;;14.00;58.80;;;;;;5032907;28;20212;-46
2022/07/23 06:44:32;;;;;;;3.65;1.90;;;14.00;58.80;;;;;;5032902;28;20204;-44
2022/07/23 06:47:03;;;;;;;4.65;2.70;;;14.10;58.80;;;;;;5033378;28;20199;-44
2022/07/23 06:49:34;;;;;;;3.08;2.17;;;14.00;58.80;;;;;;5024545;28;20553;-44
2022/07/23 06:52:04;;;;;;;4.13;2.33;;;14.00;58.80;;;;;;5032872;28;20224;-44
2022/07/23 06:54:35;;;;;;;3.22;2.17;;;14.00;58.80;;;;;;5032339;28;20188;-44
2022/07/23 06:57:10;;;;;;;3.45;2.45;;;14.00;58.80;;;;;;5032121;28;20200;-43
2022/07/23 06:59:40;;;;;;;2.97;2.17;;;14.00;58.80;;;;;;5032017;28;20219;-44
2022/07/23 07:02:11;;;;;;;3.30;2.53;;;14.00;58.80;;;;;;5031934;28;20220;-45
2022/07/23 07:04:42;;;;;;;4.32;2.35;;;14.00;58.80;;;;;;5032362;28;20207;-49
2022/07/23 07:07:13;;;;;;;2.70;2.20;;;14.00;58.80;;;;;;5033087;28;20235;-45
2022/07/23 07:09:44;;;;;;;5.88;3.03;;;14.00;58.80;;;;;;5033070;28;20242;-44
2022/07/23 07:12:17;;;;;;;3.58;2.40;;;14.00;58.80;;;;;;5032970;28;20220;-44
2022/07/23 07:14:48;;;;;;;3.58;2.53;;;14.00;58.80;;;;;;5033071;28;20200;-44
2022/07/23 07:17:18;;;;;;;3.88;2.42;;;14.00;58.80;;;;;;5033765;28;20196;-43
2022/07/23 07:19:49;;;;;;;3.97;2.47;;;14.00;58.80;;;;;;5032766;28;20216;-44
2022/07/23 07:22:20;;;;;;;4.10;2.83;;;14.00;58.80;;;;;;5032793;28;20216;-44
2022/07/23 07:24:51;;;;;;;3.15;2.33;;;14.00;58.90;;;;;;5032064;28;20565;-45
2022/07/23 07:27:23;;;;;;;3.40;2.40;;;14.00;58.90;;;;;;5032638;28;20204;-47
2022/07/23 07:29:54;;;;;;;4.20;2.42;;;13.90;58.90;;;;;;5032970;28;20221;-44
2022/07/23 07:32:25;;;;;;;4.00;2.60;;;14.00;58.90;;;;;;5032820;28;20222;-46
2022/07/23 07:34:55;;;;;;;4.95;2.63;;;14.00;58.90;;;;;;5032133;28;20275;-46
2022/07/23 07:37:26;;;;;;;3.15;2.22;;;14.00;58.90;;;;;;5032804;28;20227;-45
2022/07/23 07:39:57;;;;;;;3.72;2.63;;;14.00;58.90;;;;;;5032799;28;20227;-54
2022/07/23 07:42:30;;;;;;;3.80;2.58;;;13.90;58.90;;;;;;5029247;28;20224;-44
2022/07/23 07:45:01;;;;;;;4.55;2.70;;;14.00;58.90;;;;;;5013107;28;20254;-44
2022/07/23 07:47:31;;;;;;;3.53;2.60;;;14.00;58.90;;;;;;5013048;28;20196;-46
2022/07/23 07:50:02;;;;;;;3.53;2.83;;;14.00;58.90;;;;;;5016372;28;20192;-45
2022/07/23 07:52:33;;;;;;;4.25;2.80;;;13.90;59.50;;;;;;5031950;28;20220;-44
2022/07/23 07:55:04;;;;;;;3.67;2.25;;;13.90;58.90;;;;;;5031969;28;20200;-45
2022/07/23 07:57:37;;;;;;;2.85;2.40;;;13.90;58.90;;;;;;5032361;28;20552;-44
2022/07/23 08:00:09;;;;;;;3.65;2.30;;;13.90;58.90;;;;;;5032320;28;20231;-45
2022/07/23 08:02:45;;;;;;;3.05;2.17;;;13.90;59.00;;;;;;5032371;28;20222;-45
2022/07/23 08:05:16;;;;;;;2.85;2.38;;;13.90;59.00;;;;;;5031652;28;20196;-47
2022/07/23 08:07:47;;;;;;;3.80;2.53;;;13.90;58.90;;;;;;5031838;28;20199;-44
2022/07/23 08:10:18;;;;;;;3.83;2.50;;;13.90;59.00;;;;;;5032157;28;20208;-45
2022/07/23 08:12:53;;;;;;;3.42;2.08;;;13.90;59.00;;;;;;5031984;28;20216;-44
2022/07/23 08:15:24;;;;;;;2.97;2.40;;;13.90;59.00;;;;;;5031905;28;20554;-44
2022/07/23 08:17:55;;;;;;;5.43;2.47;;;13.90;59.10;;;;;;5032047;28;20203;-45
2022/07/23 08:20:27;;;;;;;3.17;2.40;;;13.90;59.10;;;;;;5031661;28;20555;-43
2022/07/23 08:22:58;;;;;;;3.33;2.25;;;13.90;59.10;;;;;;5032330;28;20216;-44
2022/07/23 08:25:31;;;;;;;3.15;2.38;;;13.90;59.10;;;;;;5031910;28;20206;-45
2022/07/23 08:28:04;;;;;;;3.03;2.53;;;13.90;59.10;;;;;;5028015;28;20231;-44
2022/07/23 08:30:36;;;;;;;2.78;2.35;;;13.90;59.00;;;;;;5020722;28;20197;-44
2022/07/23 08:33:11;;;;;;;3.13;2.45;;;13.90;59.10;;;;;;5031977;28;20251;-45
2022/07/23 08:35:42;;;;;;;4.07;2.42;;;13.90;59.10;;;;;;5030721;28;20782;-43
2022/07/23 08:38:15;;;;;;;2.92;2.30;;;13.90;59.10;;;;;;5030530;28;20184;-46
2022/07/23 08:40:47;;;;;;;3.35;2.15;;;13.90;59.10;;;;;;5031142;28;20224;-44
2022/07/23 08:43:22;;;;;;;3.00;2.33;;;13.90;59.10;;;;;;5031579;28;20220;-47
2022/07/23 08:45:56;;;;;;;2.88;2.35;;;13.90;59.10;;;;;;5031621;28;20214;-48
2022/07/23 08:48:27;;;;;;;3.20;2.30;;;13.90;59.10;;;;;;5031496;28;20209;-45
2022/07/23 08:50:59;;;;;;;2.80;2.25;;;13.90;59.10;;;;;;5030690;28;20200;-45
2022/07/23 08:53:31;;;;;;;3.45;2.42;;;13.90;59.10;;;;;;5026311;28;20577;-44
2022/07/23 08:56:03;;;;;;;4.53;2.30;;;13.90;59.10;;;;;;5011799;28;20553;-44
2022/07/23 08:58:36;;;;;;;2.88;2.20;;;13.90;59.10;;;;;;5011851;28;20197;-44
2022/07/23 09:01:07;;;;;;;3.97;2.55;;;13.90;59.10;;;;;;5011255;28;20719;-46
2022/07/23 09:03:39;;;;;;;4.07;2.50;;;13.90;59.10;;;;;;5011652;28;20201;-46
2022/07/23 09:06:10;;;;;;;3.85;2.45;;;13.80;59.00;;;;;;5020141;28;20199;-46
2022/07/23 09:08:44;;;;;;;3.65;2.70;;;13.80;59.00;;;;;;5030709;28;20200;-43
2022/07/23 09:11:17;;;;;;;3.30;2.42;;;13.80;59.10;;;;;;5030834;28;20215;-44
2022/07/23 09:13:52;;;;;;;4.03;2.83;;;13.80;59.10;;;;;;5030876;28;20204;-45
2022/07/23 09:16:27;;;;;;;3.40;2.70;;;13.80;59.10;;;;;;5030759;28;20579;-47
2022/07/23 09:18:59;;;;;;;2.83;2.50;;;13.80;59.10;;;;;;5030949;28;20199;-44
2022/07/23 09:21:31;;;;;;;4.00;2.63;;;13.80;59.10;;;;;;5030521;28;20223;-44
2022/07/23 09:24:03;;;;;;;3.22;2.42;;;13.80;59.10;;;;;;5030871;28;20254;-47
2022/07/23 09:26:36;;;;;;;3.38;2.40;;;13.80;59.10;;;;;;5030724;28;20200;-44
2022/07/23 09:29:14;;;;;;;3.95;2.35;;;13.80;59.10;;;;;;5030796;28;20207;-50
2022/07/23 09:31:50;;;;;;;3.30;2.53;;;13.80;59.10;;;;;;5031543;28;20830;-45
2022/07/23 09:34:23;;;;;;;4.10;2.30;;;13.80;59.10;;;;;;5030758;28;20202;-44
2022/07/23 09:36:55;;;;;;;2.55;2.25;;;13.80;59.10;;;;;;5029577;28;20200;-45
2022/07/23 09:39:33;;;;;;;3.65;2.58;;;13.80;59.10;;;;;;5030085;28;20199;-44
2022/07/23 09:42:17;;;;;;;4.22;2.75;;;13.80;59.10;;;;;;5030347;28;20234;-46
2022/07/23 09:44:50;;;;;;;3.35;2.42;;;13.80;59.20;;;;;;5030430;28;20207;-45
2022/07/23 09:47:21;;;;;;;3.35;2.47;;;13.80;59.10;;;;;;5032914;28;20192;-47
2022/07/23 09:50:04;;;;;;;2.85;2.40;;;13.80;59.20;;;;;;5034684;28;20192;-49
2022/07/23 09:52:36;;;;;;;3.17;2.28;;;13.80;59.30;;;;;;5027205;28;21440;-60
2022/07/23 09:55:09;;;;;;;3.65;2.33;;;13.80;59.40;;;;;;5019182;28;20192;-55
2022/07/23 09:57:41;;;;;;;3.97;2.30;;;13.80;59.30;;;;;;5027711;28;20215;-59
2022/07/23 10:00:15;;;;;;;7.20;3.20;;;13.80;59.30;;;;;;5033319;28;20749;-44
2022/07/23 10:02:50;;;;;;;2.67;2.47;;;13.80;59.40;;;;;;5033851;28;20215;-55
2022/07/23 10:05:21;;;;;;;3.50;2.75;;;13.80;59.40;;;;;;5034237;28;20195;-49
2022/07/23 10:07:53;;;;;;;3.35;2.67;;;13.80;59.40;;;;;;5033847;28;20196;-48
2022/07/23 10:10:28;;;;;;;3.38;2.50;;;13.80;59.50;;;;;;5034195;28;20204;-44
2022/07/23 10:15:57;;;;;;;4.13;2.75;;;13.80;59.60;;;;;;5034041;28;20188;-44
2022/07/23 10:18:28;;;;;;;3.97;2.80;;;13.80;59.60;;;;;;5033670;28;20193;-49
2022/07/23 10:20:59;;;;;;;4.75;2.88;;;13.80;59.60;;;;;;5033979;28;20238;-48
2022/07/23 10:23:40;;;;;;;5.68;3.30;;;13.80;59.70;;;;;;5033611;28;20215;-45
2022/07/23 10:26:14;;;;;;;4.97;3.15;;;13.80;59.70;;;;;;5034151;28;20200;-44
2022/07/23 10:29:04;;;;;;;4.90;3.28;;;13.80;59.70;;;;;;5013700;28;20197;-52
2022/07/23 10:31:50;;;;;;;4.85;2.92;;;13.80;59.70;;;;;;5023523;28;20212;-43
2022/07/23 10:34:30;;;;;;;6.05;3.17;;;13.80;59.70;;;;;;5032850;28;20222;-60
2022/07/23 10:37:07;;;;;;;5.43;3.25;;;13.80;59.70;;;;;;5030124;28;20196;-56
2022/07/23 10:39:38;;;;;;;6.55;3.70;;;13.80;59.70;;;;;;5032757;28;20199;-47
2022/07/23 10:42:14;;;;;;;5.65;4.07;;;13.80;59.70;;;;;;5032380;28;20601;-54
2022/07/23 10:44:46;;;;;;;6.45;3.80;;;13.70;60.00;;;;;;5032665;28;20203;-51
2022/07/23 10:47:43;;;;;;;4.78;3.30;;;13.70;60.40;;;;;;5032971;28;20562;-51
2022/07/23 10:50:25;;;;;;;6.25;3.92;;;13.70;60.40;;;;;;5032528;28;20215;-50
2022/07/23 10:53:20;;;;;;;5.72;3.95;;;13.80;60.30;;;;;;5025695;28;20263;-53
2022/07/23 10:55:53;;;;;;;5.95;3.53;;;13.70;60.00;;;;;;5033029;28;20200;-57
2022/07/23 10:58:51;;;;;;;3.88;3.28;;;13.70;60.00;;;;;;5032960;28;20671;-57
2022/07/23 11:01:38;;;;;;;5.63;3.45;;;13.70;60.00;;;;;;5032732;28;20603;-50
2022/07/23 11:04:12;;;;;;;5.50;3.38;;;13.70;60.80;;;;;;5015797;28;20249;-55
2022/07/23 11:07:13;;;;;;;6.68;3.95;;;13.70;60.00;;;;;;5014687;28;20571;-58
2022/07/23 11:09:45;;;;;;;5.75;3.90;;;13.70;59.90;;;;;;5033230;28;20238;-58
2022/07/23 11:12:37;;;;;;;5.38;3.88;;;13.70;59.90;;;;;;5032940;28;20212;-46
2022/07/23 11:15:10;;;;;;;4.32;3.13;;;13.70;59.90;;;;;;5033223;28;20192;-60
2022/07/23 11:18:01;;;;;;;5.80;3.92;;;13.70;59.90;;;;;;5032241;28;20192;-57
2022/07/23 11:20:34;;;;;;;5.78;4.10;;;13.70;59.90;;;;;;5032095;28;20749;-44
2022/07/23 11:23:05;;;;;;;4.43;3.50;;;13.70;59.80;;;;;;5031817;28;20208;-60
2022/07/23 11:25:38;;;;;;;5.28;4.10;;;13.70;59.90;;;;;;5032376;28;20215;-58
2022/07/23 11:28:14;;;;;;;6.07;4.00;;;13.70;59.80;;;;;;5031650;28;20660;-56
2022/07/23 11:30:46;;;;;;;4.65;3.63;;;13.70;59.80;;;;;;5031548;28;20200;-53
2022/07/23 11:33:24;;;;;;;5.60;3.30;;;13.70;59.80;;;;;;5031670;28;20220;-55
2022/07/23 11:36:06;;;;;;;5.90;3.72;;;13.70;59.80;;;;;;5032463;28;20279;-53
2022/07/23 11:38:38;;;;;;;5.93;3.33;;;13.70;59.80;;;;;;5031031;28;20203;-55
2022/07/23 11:41:08;;;;;;;5.80;3.92;;;13.70;59.80;;;;;;5031824;28;20227;-46
2022/07/23 11:43:40;;;;;;;5.47;3.47;;;13.70;59.80;;;;;;5031232;28;20207;-48
2022/07/23 11:46:13;;;;;;;3.90;3.20;;;13.70;59.80;;;;;;5031130;28;20212;-52
2022/07/23 11:48:44;;;;;;;5.35;3.70;;;13.70;59.80;;;;;;5030802;28;20211;-52
2022/07/23 11:51:28;;;;;;;3.92;3.10;;;13.70;59.80;;;;;;5030880;28;20204;-47
2022/07/23 11:54:09;;;;;;;5.75;3.72;;;13.70;59.70;;;;;;5030438;28;20207;-47
2022/07/23 11:56:40;;;;;;;4.97;3.40;;;13.70;59.70;;;;;;5030998;28;20235;-45
2022/07/23 11:59:11;;;;;;;4.35;3.28;;;13.70;59.70;;;;;;5030602;28;20211;-52
2022/07/23 12:01:57;;;;;;;4.68;3.20;;;13.70;59.70;;;;;;5030480;28;20228;-50
2022/07/23 12:04:39;;;;;;;4.90;3.53;;;13.70;59.70;;;;;;5010756;28;20721;-53
2022/07/23 12:07:27;;;;;;;5.68;3.38;;;13.60;59.70;;;;;;5010852;28;20196;-48
2022/07/23 12:09:59;;;;;;;4.13;3.03;;;13.70;59.80;;;;;;5010719;28;20712;-53
2022/07/23 12:12:30;;;;;;;3.97;2.92;;;13.60;59.70;;;;;;5010942;28;20251;-55
2022/07/23 12:15:01;;;;;;;4.78;3.30;;;13.60;59.70;;;;;;5010961;28;20205;-54
2022/07/23 12:17:33;;;;;;;4.55;3.28;;;13.60;59.70;;;;;;5014554;28;20196;-49
2022/07/23 12:20:05;;;;;;;4.28;3.25;;;13.70;59.70;;;;;;5030428;28;20683;-46
2022/07/23 12:22:43;;;;;;;4.70;3.58;;;13.60;59.70;;;;;;5030048;28;20231;-48
2022/07/23 12:25:16;;;;;;;5.18;3.30;;;13.60;59.70;;;;;;5029939;28;20208;-55
2022/07/23 12:27:48;;;;;;;3.95;2.88;;;13.60;59.70;;;;;;5030037;28;20200;-50
2022/07/23 12:30:27;;;;;;;4.97;3.50;;;13.60;59.70;;;;;;5030478;28;20196;-59
2022/07/23 12:32:59;;;;;;;5.43;3.30;;;13.60;59.60;;;;;;5029909;28;20307;-49
2022/07/23 12:35:40;;;;;;;4.68;3.35;;;13.60;59.70;;;;;;5026653;28;20192;-48
2022/07/23 12:38:14;;;;;;;5.10;3.25;;;13.60;59.60;;;;;;5030288;28;20649;-50
2022/07/23 12:40:50;;;;;;;4.47;3.05;;;13.60;59.70;;;;;;5030644;28;20552;-49
2022/07/23 12:43:24;;;;;;;5.30;3.53;;;13.60;59.60;;;;;;5030021;28;20212;-55
2022/07/23 12:45:57;;;;;;;4.20;3.60;;;13.60;59.60;;;;;;5029792;28;20576;-54
2022/07/23 12:48:29;;;;;;;4.20;3.47;;;13.60;59.70;;;;;;5029606;28;20661;-47
2022/07/23 12:51:02;;;;;;;4.50;3.60;;;13.60;59.60;;;;;;5029719;28;20215;-44
2022/07/23 12:53:39;;;;;;;5.13;3.40;;;13.50;59.60;;;;;;5030290;28;20208;-48
2022/07/23 12:56:12;;;;;;;4.32;3.38;;;13.60;59.60;;;;;;5030054;28;20254;-47
2022/07/23 12:58:49;;;;;;;5.43;3.58;;;13.50;60.10;;;;;;5029705;28;20211;-47
2022/07/23 13:01:30;;;;;;;4.15;3.33;;;13.50;59.50;;;;;;5029258;28;20250;-54
2022/07/23 13:04:11;;;;;;;4.10;3.15;;;13.50;59.50;;;;;;5028883;28;20254;-48
2022/07/23 13:06:44;;;;;;;4.68;3.10;;;13.50;59.50;;;;;;5026286;28;20199;-56
2022/07/23 13:09:18;;;;;;;3.35;2.80;;;13.50;59.50;;;;;;5029835;28;20199;-53
2022/07/23 13:11:50;;;;;;;3.92;3.30;;;13.50;59.60;;;;;;5029408;28;20216;-55
2022/07/23 13:14:22;;;;;;;4.03;2.90;;;13.40;59.50;;;;;;5029152;28;20219;-44
2022/07/23 13:16:53;;;;;;;3.60;2.95;;;13.40;59.50;;;;;;5029316;28;20215;-52
2022/07/23 13:19:24;;;;;;;3.30;2.78;;;13.40;59.60;;;;;;5028998;28;20204;-47